CheckWX is a tool to help pilots better visualize weather data.  It is not intended as a substitute for an official pre-flight weather briefing.

22:09:04 UTC

EHKD METAR
De Kooy Airport
Den Helder, The Netherlands
Current

14 mins ago

EHKD 202155Z AUTO 24008KT 9999 BKN061 BKN066 BKN082 18/16 Q1012 BLU
Observed
Jul-20 @ 21:55 UTC
Wind
  • 240° at 8 KTS
Visibility
10,000+ meters
Flight Rules
VFR
Cloud Levels
  • Broken at 6,100' AGL
  • Broken at 6,600' AGL
  • Broken at 8,200' AGL
Temperature
18°C / 64°F
Dewpoint
16°C / 61°F
Humidity
88%
Altimeter
29.88" Hg
Pressure
1011.92 hPa
Previous

44 mins ago

EHKD 202125Z AUTO 24008KT 200V260 9999 BKN050 BKN056 18/16 Q1011 BLU
Observed
Jul-20 @ 21:25 UTC
Wind
  • 240° at 8 KTS
Visibility
10,000+ meters
Flight Rules
VFR
Cloud Levels
  • Broken at 5,000' AGL
  • Broken at 5,600' AGL
Temperature
18°C / 64°F
Dewpoint
16°C / 61°F
Humidity
88%
Altimeter
29.85" Hg
Pressure
1010.92 hPa
Previous

1 hour ago

EHKD 202055Z AUTO 24010KT 9999 BKN052 18/16 Q1011 BLU
Observed
Jul-20 @ 20:55 UTC
Wind
  • 240° at 10 KTS
Visibility
10,000+ meters
Flight Rules
VFR
Cloud Levels
  • Broken at 5,200' AGL
Temperature
18°C / 64°F
Dewpoint
16°C / 61°F
Humidity
88%
Altimeter
29.85" Hg
Pressure
1010.92 hPa